createdAt,value
2023-01-01T00:01:24.807Z,243.25
2023-01-01T00:03:53.956Z,217.63
2023-01-01T00:06:22.652Z,213.45
2023-01-01T00:09:11.800Z,215.13
2023-01-01T00:11:39.979Z,188.23
2023-01-01T00:14:12.557Z,149.00
2023-01-01T00:16:41.242Z,112.38
2023-01-01T00:19:09.839Z,107.10
2023-01-01T00:21:37.731Z,106.90
2023-01-01T00:24:06.850Z,117.15
2023-01-01T00:26:35.696Z,117.72
2023-01-01T00:29:03.994Z,109.88
2023-01-01T00:31:33.357Z,105.50
2023-01-01T00:34:01.305Z,113.97
2023-01-01T00:36:29.669Z,127.90
2023-01-01T00:38:58.706Z,125.07
2023-01-01T00:41:26.559Z,124.35
2023-01-01T00:43:54.436Z,141.90
2023-01-01T00:46:22.360Z,142.70
2023-01-01T00:48:51.636Z,129.45
2023-01-01T00:51:19.452Z,139.20
2023-01-01T00:53:47.295Z,130.85
2023-01-01T00:56:15.108Z,128.57
2023-01-01T00:58:43.056Z,124.07
2023-01-01T01:01:10.978Z,133.73
2023-01-01T01:03:39.277Z,132.77
2023-01-01T01:06:13.720Z,124.07
2023-01-01T01:08:43.058Z,110.30
2023-01-01T01:11:13.980Z,117.75
2023-01-01T01:13:43.258Z,126.53
2023-01-01T01:16:12.340Z,94.35
2023-01-01T01:18:40.231Z,86.25
2023-01-01T01:21:11.258Z,84.68
2023-01-01T01:23:39.282Z,78.38
2023-01-01T01:26:11.516Z,81.40
2023-01-01T01:28:45.367Z,86.95
2023-01-01T01:31:17.213Z,77.65
2023-01-01T01:33:46.017Z,91.35
2023-01-01T01:36:16.382Z,106.32
2023-01-01T01:38:44.586Z,119.63
2023-01-01T01:41:26.644Z,125.38
2023-01-01T01:43:58.550Z,159.93
2023-01-01T01:46:31.144Z,130.90
2023-01-01T01:49:02.159Z,159.40
2023-01-01T01:51:35.716Z,173.20
2023-01-01T01:54:08.159Z,196.43
2023-01-01T01:56:43.933Z,308.70
2023-01-01T01:59:12.016Z,331.88
2023-01-01T02:01:40.386Z,285.60
2023-01-01T02:04:08.377Z,297.15
2023-01-01T02:06:40.855Z,282.90
2023-01-01T02:09:10.393Z,335.45
2023-01-01T02:11:38.681Z,284.35
2023-01-01T02:14:07.083Z,326.55
2023-01-01T02:16:39.961Z,289.70
2023-01-01T02:19:18.135Z,324.55
2023-01-01T02:22:01.105Z,318.83
2023-01-01T02:24:49.721Z,342.17
2023-01-01T02:27:27.267Z,318.90
2023-01-01T02:30:01.566Z,328.15
2023-01-01T02:32:35.165Z,317.80
2023-01-01T02:35:21.745Z,303.67
2023-01-01T02:37:50.804Z,267.98
2023-01-01T02:40:22.255Z,278.48
2023-01-01T02:42:50.625Z,250.63
2023-01-01T02:45:20.103Z,283.63
2023-01-01T02:47:47.925Z,256.65
2023-01-01T02:50:19.408Z,242.75
2023-01-01T02:53:04.767Z,214.70
2023-01-01T02:55:43.361Z,223.63
2023-01-01T02:58:36.292Z,186.40
2023-01-01T03:01:13.753Z,189.43
2023-01-01T03:03:47.482Z,228.63
2023-01-01T03:06:26.299Z,205.05
2023-01-01T03:09:03.044Z,183.75
2023-01-01T03:11:39.662Z,187.23
2023-01-01T03:14:15.662Z,194.75
2023-01-01T03:16:51.584Z,161.60
2023-01-01T03:19:21.124Z,159.93
2023-01-01T03:21:51.899Z,159.68
2023-01-01T03:24:25.245Z,158.82
2023-01-01T03:26:57.704Z,156.70
2023-01-01T03:29:26.832Z,139.32
2023-01-01T03:31:59.020Z,115.70
2023-01-01T03:34:33.016Z,123.85
2023-01-01T03:37:06.245Z,103.65
2023-01-01T03:39:38.251Z,104.65
2023-01-01T03:42:16.537Z,152.23
2023-01-01T03:44:48.758Z,148.25
2023-01-01T03:47:18.151Z,157.25
2023-01-01T03:49:47.184Z,156.45
2023-01-01T03:52:29.908Z,158.07
2023-01-01T03:55:05.382Z,172.93
2023-01-01T03:57:42.349Z,167.32
2023-01-01T04:00:16.296Z,167.65
2023-01-01T04:02:50.636Z,180.55
2023-01-01T04:05:20.870Z,176.10
2023-01-01T04:10:19.983Z,148.57
2023-01-01T04:12:50.184Z,158.02
2023-01-01T04:15:19.250Z,160.10
2023-01-01T04:17:48.422Z,121.78
2023-01-01T04:20:16.620Z,123.72
2023-01-01T04:22:44.725Z,132.30
2023-01-01T04:25:13.287Z,110.65
2023-01-01T04:27:42.133Z,102.05
2023-01-01T04:30:12.672Z,88.75
2023-01-01T04:32:40.896Z,92.82
2023-01-01T04:35:12.627Z,79.97
2023-01-01T04:37:41.745Z,69.70
2023-01-01T04:40:11.679Z,71.85
2023-01-01T04:42:39.740Z,74.72
2023-01-01T04:45:08.837Z,72.10
2023-01-01T04:47:36.728Z,60.22
2023-01-01T04:50:05.107Z,68.40
2023-01-01T04:52:34.472Z,79.03
2023-01-01T04:55:02.324Z,64.97
2023-01-01T04:57:30.901Z,89.03
2023-01-01T04:59:59.014Z,88.70
2023-01-01T05:02:27.496Z,112.65
2023-01-01T05:04:55.443Z,115.13
2023-01-01T05:07:23.328Z,124.68
2023-01-01T05:09:52.521Z,116.15
2023-01-01T05:12:20.384Z,125.43
2023-01-01T05:14:48.217Z,117.00
2023-01-01T05:17:16.052Z,130.25
2023-01-01T05:19:43.863Z,136.82
2023-01-01T05:22:11.681Z,128.70
2023-01-01T05:24:39.485Z,121.18
2023-01-01T05:27:08.661Z,117.50
2023-01-01T05:29:37.822Z,99.80
2023-01-01T05:37:01.053Z,96.78
2023-01-01T05:39:28.975Z,96.13
2023-01-01T05:41:56.834Z,82.67
2023-01-01T05:44:26.021Z,105.85
2023-01-01T05:46:53.828Z,91.40
2023-01-01T05:49:21.672Z,97.78
2023-01-01T05:51:49.569Z,104.72
2023-01-01T05:56:44.518Z,103.97
2023-01-01T05:59:12.518Z,89.82
2023-01-01T06:01:45.336Z,103.93
2023-01-01T06:04:14.434Z,93.72
2023-01-01T06:06:42.492Z,95.05
2023-01-01T06:09:12.242Z,93.23
2023-01-01T06:11:40.136Z,81.90
2023-01-01T06:14:07.945Z,74.85
2023-01-01T06:16:36.024Z,68.93
2023-01-01T06:19:05.298Z,68.40
2023-01-01T06:21:33.149Z,65.05
2023-01-01T06:24:01.526Z,67.37
2023-01-01T06:26:31.156Z,64.75
2023-01-01T06:28:59.734Z,62.17
2023-01-01T06:31:28.493Z,64.70
2023-01-01T06:33:56.833Z,66.88
2023-01-01T06:36:27.761Z,66.78
2023-01-01T06:38:58.545Z,65.27
2023-01-01T06:41:27.503Z,60.45
2023-01-01T06:43:56.619Z,63.55
2023-01-01T06:46:26.161Z,61.20
2023-01-01T06:48:56.125Z,60.53
2023-01-01T06:51:26.571Z,59.17
2023-01-01T06:53:55.192Z,56.83
2023-01-01T06:56:23.296Z,58.22
2023-01-01T06:58:51.260Z,55.87
2023-01-01T07:01:21.011Z,63.57
2023-01-01T07:03:54.621Z,56.67
2023-01-01T07:06:23.821Z,52.35
2023-01-01T07:08:53.355Z,54.60
2023-01-01T07:11:21.212Z,51.40
2023-01-01T07:13:49.058Z,41.97
2023-01-01T07:16:17.242Z,39.97
2023-01-01T07:18:45.551Z,40.73
2023-01-01T07:21:29.484Z,41.88
2023-01-01T07:23:59.939Z,44.43
2023-01-01T07:26:28.659Z,40.07
2023-01-01T07:29:02.831Z,40.70
2023-01-01T07:31:35.155Z,44.92
2023-01-01T07:34:03.168Z,50.30
2023-01-01T07:36:31.035Z,44.50
2023-01-01T07:39:00.254Z,43.13
2023-01-01T07:41:28.190Z,42.53
2023-01-01T07:43:56.058Z,47.30
2023-01-01T07:46:24.046Z,52.65
2023-01-01T07:48:52.001Z,50.03
2023-01-01T07:51:19.893Z,52.63
2023-01-01T07:53:47.705Z,45.83
2023-01-01T07:56:16.933Z,45.77
2023-01-01T07:58:44.775Z,42.03
2023-01-01T08:01:14.436Z,42.67
2023-01-01T08:03:42.760Z,48.80
2023-01-01T08:06:12.044Z,43.33
2023-01-01T08:08:40.213Z,44.97
2023-01-01T08:11:08.111Z,45.50
2023-01-01T08:13:37.544Z,41.00
2023-01-01T08:16:07.085Z,44.35
2023-01-01T08:18:34.990Z,46.15
2023-01-01T08:21:03.185Z,42.73
2023-01-01T08:23:31.137Z,39.20
2023-01-01T08:26:02.763Z,39.40
2023-01-01T08:28:31.372Z,43.83
2023-01-01T08:31:00.597Z,38.55
2023-01-01T08:33:30.361Z,42.70
2023-01-01T08:35:58.364Z,35.72
2023-01-01T08:38:26.391Z,37.75
2023-01-01T08:40:54.274Z,40.63
2023-01-01T08:43:22.155Z,40.58
2023-01-01T08:45:50.965Z,38.58
2023-01-01T08:48:22.237Z,38.40
2023-01-01T08:50:54.295Z,38.80
2023-01-01T08:53:22.492Z,35.40
2023-01-01T08:55:57.661Z,34.83
2023-01-01T08:58:25.668Z,32.78
2023-01-01T09:00:53.873Z,31.58
2023-01-01T09:03:23.846Z,32.67
2023-01-01T09:05:51.803Z,29.17
2023-01-01T09:08:19.767Z,29.15
2023-01-01T09:10:48.233Z,31.00
2023-01-01T09:13:18.479Z,29.27
2023-01-01T09:15:46.559Z,26.52
2023-01-01T09:18:15.013Z,23.35
2023-01-01T09:20:44.173Z,23.48
2023-01-01T09:23:13.059Z,20.52
2023-01-01T09:25:41.028Z,22.52
2023-01-01T09:28:11.722Z,21.88
2023-01-01T09:30:39.721Z,24.92
2023-01-01T09:33:07.620Z,22.20
2023-01-01T09:35:36.262Z,22.67
2023-01-01T09:38:05.472Z,23.17
2023-01-01T09:40:51.161Z,38.95
2023-01-01T09:43:29.763Z,51.17
2023-01-01T09:46:00.226Z,33.05
2023-01-01T09:48:30.731Z,30.30
2023-01-01T09:50:59.916Z,23.65
2023-01-01T09:53:33.498Z,21.73
2023-01-01T09:56:02.893Z,18.50
2023-01-01T09:58:35.744Z,20.98
2023-01-01T10:01:15.502Z,20.13
2023-01-01T10:03:48.944Z,21.15
2023-01-01T10:06:23.613Z,22.73
2023-01-01T10:09:05.480Z,22.70
2023-01-01T10:11:42.355Z,20.83
2023-01-01T10:14:18.316Z,20.10
2023-01-01T10:16:49.312Z,36.40
2023-01-01T10:19:27.238Z,33.65
2023-01-01T10:22:01.614Z,26.02
2023-01-01T10:24:39.947Z,23.98
2023-01-01T10:27:08.087Z,22.42
2023-01-01T10:29:42.517Z,22.35
2023-01-01T10:32:20.867Z,20.08
2023-01-01T10:34:50.110Z,24.25
2023-01-01T10:37:18.234Z,22.70
2023-01-01T10:39:48.637Z,21.98
2023-01-01T10:42:17.495Z,20.77
2023-01-01T10:44:45.846Z,18.25
2023-01-01T10:47:25.529Z,20.80
2023-01-01T10:49:56.874Z,18.88
2023-01-01T10:52:28.749Z,18.75
2023-01-01T10:54:58.346Z,17.88
2023-01-01T10:57:33.446Z,15.88
2023-01-01T11:00:20.393Z,16.25
2023-01-01T11:02:48.535Z,14.77
2023-01-01T11:05:21.895Z,15.43
2023-01-01T11:07:50.579Z,15.13
2023-01-01T11:10:21.664Z,15.00
2023-01-01T11:13:06.545Z,13.73
2023-01-01T11:15:39.363Z,15.10
2023-01-01T11:18:13.508Z,13.93
2023-01-01T11:20:42.160Z,12.43
2023-01-01T11:23:21.098Z,11.10
2023-01-01T11:26:08.708Z,11.05
2023-01-01T11:28:37.103Z,10.48
2023-01-01T11:31:12.109Z,12.68
2023-01-01T11:33:45.440Z,12.43
2023-01-01T11:36:21.109Z,10.88
2023-01-01T11:38:51.241Z,42.90
2023-01-01T11:41:20.481Z,25.02
2023-01-01T11:43:49.957Z,24.52
2023-01-01T11:46:24.700Z,18.40
2023-01-01T11:48:55.609Z,22.23
2023-01-01T11:51:32.536Z,15.40
2023-01-01T11:54:25.574Z,13.52
2023-01-01T11:56:59.541Z,11.25
2023-01-01T11:59:34.819Z,9.35
2023-01-01T12:02:05.799Z,8.20
2023-01-01T12:04:40.487Z,9.15
2023-01-01T12:07:10.827Z,9.27
2023-01-01T12:09:43.531Z,8.40
2023-01-01T12:12:19.708Z,8.85
2023-01-01T12:14:54.188Z,8.82
2023-01-01T12:17:25.640Z,8.25
2023-01-01T12:19:59.403Z,8.05
2023-01-01T12:22:27.723Z,7.63
2023-01-01T12:24:55.857Z,8.10
2023-01-01T12:27:39.105Z,8.35
2023-01-01T12:30:21.634Z,7.15
2023-01-01T12:33:09.508Z,6.68
2023-01-01T12:36:00.552Z,6.57
2023-01-01T12:38:48.218Z,6.20
2023-01-01T12:41:29.936Z,5.63
2023-01-01T12:44:08.578Z,5.75
2023-01-01T12:46:47.296Z,6.63
2023-01-01T12:49:50.044Z,6.05
2023-01-01T12:52:29.562Z,6.18
2023-01-01T12:55:29.989Z,7.00
2023-01-01T12:58:06.527Z,6.88
2023-01-01T13:00:40.665Z,7.05
2023-01-01T13:03:18.050Z,7.50
2023-01-01T13:05:50.275Z,7.25
2023-01-01T13:08:18.097Z,5.60
2023-01-01T13:10:48.395Z,3.80
2023-01-01T13:13:16.511Z,3.65
2023-01-01T13:15:49.745Z,2.90
2023-01-01T13:18:22.127Z,2.40
2023-01-01T13:20:57.707Z,2.65
2023-01-01T13:23:51.616Z,2.35
2023-01-01T13:26:39.367Z,2.53
2023-01-01T13:29:43.890Z,2.30
2023-01-01T13:32:16.624Z,2.40
2023-01-01T13:35:17.692Z,2.53
2023-01-01T13:37:47.613Z,2.22
2023-01-01T13:40:51.455Z,2.50
2023-01-01T13:43:21.830Z,2.50
2023-01-01T13:49:12.343Z,2.35
2023-01-01T13:52:21.444Z,2.30
2023-01-01T13:55:44.756Z,2.70
2023-01-01T13:58:45.589Z,2.85
2023-01-01T14:01:47.043Z,3.63
2023-01-01T14:04:30.254Z,2.67
2023-01-01T14:07:18.681Z,2.97
2023-01-01T14:09:48.994Z,2.72
2023-01-01T14:12:19.078Z,3.47
2023-01-01T14:14:47.450Z,3.45
2023-01-01T14:17:16.916Z,2.70
2023-01-01T14:19:46.235Z,2.80
2023-01-01T14:22:17.876Z,3.92
2023-01-01T14:24:48.247Z,2.78
2023-01-01T14:27:20.765Z,3.15
2023-01-01T14:29:50.348Z,2.25
2023-01-01T14:32:24.046Z,3.05
2023-01-01T14:35:01.680Z,2.67
2023-01-01T14:37:29.691Z,2.40
2023-01-01T14:40:09.334Z,3.17
2023-01-01T14:42:38.269Z,3.00
2023-01-01T14:45:07.299Z,2.63
2023-01-01T14:47:37.035Z,2.75
2023-01-01T14:50:16.016Z,2.50
2023-01-01T14:52:46.754Z,2.20
2023-01-01T14:55:19.454Z,2.28
2023-01-01T14:57:50.537Z,2.40
2023-01-01T15:00:23.874Z,2.53
2023-01-01T15:02:51.911Z,2.60
2023-01-01T15:05:34.824Z,2.80
2023-01-01T15:08:05.368Z,2.33
2023-01-01T15:10:35.925Z,2.47
2023-01-01T15:13:07.189Z,2.80
2023-01-01T15:15:37.389Z,2.40
2023-01-01T15:18:05.704Z,2.67
2023-01-01T15:20:37.083Z,2.50
2023-01-01T15:23:10.047Z,3.28
2023-01-01T15:25:43.487Z,3.03
2023-01-01T15:28:20.337Z,3.42
2023-01-01T15:30:54.399Z,5.07
2023-01-01T15:33:23.227Z,4.70
2023-01-01T15:36:00.649Z,4.55
2023-01-01T15:38:34.179Z,5.90
2023-01-01T15:41:22.442Z,4.38
2023-01-01T15:43:51.613Z,4.78
2023-01-01T15:46:22.731Z,5.70
2023-01-01T15:48:54.295Z,5.30
2023-01-01T15:51:24.954Z,5.45
2023-01-01T15:53:56.311Z,4.50
2023-01-01T15:56:26.473Z,4.38
2023-01-01T15:59:05.351Z,6.63
2023-01-01T16:01:39.700Z,8.57
2023-01-01T16:04:10.650Z,7.32
2023-01-01T16:06:44.859Z,5.60
2023-01-01T16:09:14.029Z,4.70
2023-01-01T16:11:42.701Z,3.83
2023-01-01T16:14:12.305Z,4.90
2023-01-01T16:16:41.349Z,4.15
2023-01-01T16:19:14.551Z,4.35
2023-01-01T16:21:42.394Z,4.47
2023-01-01T16:24:13.452Z,8.52
2023-01-01T16:26:41.440Z,5.30
2023-01-01T16:29:11.035Z,5.18
2023-01-01T16:31:39.192Z,4.80
2023-01-01T16:34:08.991Z,4.00
2023-01-01T16:36:36.812Z,4.00
2023-01-01T16:39:04.772Z,4.93
2023-01-01T16:41:32.610Z,5.03
2023-01-01T16:44:00.467Z,5.78
2023-01-01T16:46:30.120Z,6.22
2023-01-01T16:48:58.083Z,6.97
2023-01-01T16:51:29.522Z,7.28
2023-01-01T16:54:00.556Z,6.63
2023-01-01T16:56:28.807Z,6.07
2023-01-01T16:59:02.588Z,6.63
2023-01-01T17:01:32.812Z,5.40
2023-01-01T17:04:00.962Z,4.18
2023-01-01T17:06:28.846Z,3.80
2023-01-01T17:08:56.698Z,3.78
2023-01-01T17:11:24.976Z,4.10
2023-01-01T17:13:53.152Z,4.15
2023-01-01T17:16:27.944Z,4.32
2023-01-01T17:19:17.276Z,4.35
2023-01-01T17:21:47.523Z,4.50
2023-01-01T17:24:16.847Z,4.43
2023-01-01T17:26:45.253Z,4.50
2023-01-01T17:29:13.246Z,4.63
2023-01-01T17:31:41.248Z,4.18
2023-01-01T17:34:14.310Z,4.88
2023-01-01T17:36:44.034Z,4.22
2023-01-01T17:39:12.349Z,7.93
2023-01-01T17:41:41.237Z,5.20
2023-01-01T17:44:10.408Z,5.75
2023-01-01T17:46:40.146Z,4.88
2023-01-01T17:49:09.029Z,4.70
2023-01-01T17:51:39.327Z,4.28
2023-01-01T17:54:11.623Z,4.70
2023-01-01T17:56:39.574Z,5.15
2023-01-01T17:59:07.473Z,6.30
2023-01-01T18:01:35.854Z,7.18
2023-01-01T18:04:05.844Z,11.60
2023-01-01T18:06:40.242Z,13.27
2023-01-01T18:09:14.105Z,15.82
2023-01-01T18:11:42.814Z,17.70
2023-01-01T18:14:11.700Z,15.70
2023-01-01T18:16:41.581Z,16.10
2023-01-01T18:19:09.587Z,14.07
2023-01-01T18:21:37.606Z,10.35
2023-01-01T18:24:11.677Z,12.52
2023-01-01T18:26:41.021Z,11.73
2023-01-01T18:29:09.043Z,10.38
2023-01-01T18:31:37.228Z,14.02
2023-01-01T18:34:06.787Z,11.52
2023-01-01T18:36:35.825Z,11.43
2023-01-01T18:39:11.021Z,10.48
2023-01-01T18:42:00.718Z,9.95
2023-01-01T18:44:31.316Z,9.20
2023-01-01T18:47:03.099Z,8.43
2023-01-01T18:49:32.540Z,7.78
2023-01-01T18:52:19.773Z,7.07
2023-01-01T18:54:48.245Z,7.47
2023-01-01T18:57:25.269Z,8.13
2023-01-01T18:59:59.406Z,8.35
2023-01-01T19:02:37.721Z,9.20
2023-01-01T19:05:18.345Z,8.77
2023-01-01T19:07:52.843Z,8.18
2023-01-01T19:10:20.817Z,8.18
2023-01-01T19:12:54.730Z,8.13
2023-01-01T19:15:23.036Z,9.52
2023-01-01T19:17:53.492Z,7.03
2023-01-01T19:20:24.308Z,7.10
2023-01-01T19:22:52.175Z,7.63
2023-01-01T19:25:40.670Z,8.35
2023-01-01T19:28:33.864Z,8.05
2023-01-01T19:31:02.640Z,8.35
2023-01-01T19:33:31.727Z,8.75
2023-01-01T19:36:00.163Z,10.80
2023-01-01T19:38:28.017Z,10.65
2023-01-01T19:40:56.904Z,16.50
2023-01-01T19:43:24.844Z,17.15
2023-01-01T19:45:54.038Z,10.50
2023-01-01T19:48:21.914Z,10.60
2023-01-01T19:50:49.964Z,9.02
2023-01-01T19:53:17.959Z,10.57
2023-01-01T19:55:46.191Z,9.98
2023-01-01T19:58:14.128Z,9.75
2023-01-01T20:00:43.464Z,10.55
2023-01-01T20:06:02.425Z,11.05
2023-01-01T20:08:31.008Z,10.38
2023-01-01T20:10:59.065Z,10.95
2023-01-01T20:13:27.064Z,11.38
2023-01-01T20:15:58.860Z,10.60
2023-01-01T20:18:28.223Z,11.23
2023-01-01T20:21:13.700Z,10.43
2023-01-01T20:23:42.341Z,9.65
2023-01-01T20:26:11.277Z,9.27
2023-01-01T20:28:57.156Z,8.75
2023-01-01T20:31:25.255Z,8.07
2023-01-01T20:33:55.998Z,8.70
2023-01-01T20:36:41.402Z,8.43
2023-01-01T20:39:09.262Z,8.68
2023-01-01T20:41:37.097Z,8.20
2023-01-01T20:44:05.051Z,10.80
2023-01-01T20:46:36.296Z,11.55
2023-01-01T20:49:06.201Z,16.23
2023-01-01T20:51:34.107Z,14.70
2023-01-01T20:54:02.071Z,10.13
2023-01-01T20:56:31.593Z,7.93
2023-01-01T20:59:12.215Z,7.50
2023-01-01T21:01:49.104Z,8.50
2023-01-01T21:04:19.085Z,8.63
2023-01-01T21:06:47.995Z,8.10
2023-01-01T21:09:16.046Z,8.02
2023-01-01T21:11:45.015Z,8.38
2023-01-01T21:14:12.851Z,8.57
2023-01-01T21:16:45.732Z,8.93
2023-01-01T21:19:15.354Z,9.00
2023-01-01T21:21:48.934Z,8.88
2023-01-01T21:24:22.961Z,9.30
2023-01-01T21:26:54.923Z,9.88
2023-01-01T21:29:24.954Z,9.23
2023-01-01T21:31:58.048Z,10.23
2023-01-01T21:34:35.470Z,9.52
2023-01-01T21:37:14.366Z,9.60
2023-01-01T21:39:43.151Z,10.05
2023-01-01T21:42:24.471Z,9.93
2023-01-01T21:44:59.069Z,9.25
2023-01-01T21:47:27.678Z,8.05
2023-01-01T21:49:58.270Z,7.68
2023-01-01T21:52:27.657Z,8.25
2023-01-01T21:54:57.734Z,8.52
2023-01-01T21:57:26.586Z,8.82
2023-01-01T21:59:55.147Z,9.20
2023-01-01T22:02:38.314Z,8.98
2023-01-01T22:05:30.500Z,8.63
2023-01-01T22:08:13.508Z,8.38
2023-01-01T22:10:41.363Z,7.82
2023-01-01T22:13:15.983Z,7.68
2023-01-01T22:15:45.769Z,7.57
2023-01-01T22:18:25.730Z,7.85
2023-01-01T22:20:54.108Z,7.47
2023-01-01T22:23:35.999Z,7.72
2023-01-01T22:26:21.742Z,8.30
2023-01-01T22:28:52.316Z,7.57
2023-01-01T22:31:25.772Z,7.80
2023-01-01T22:33:55.384Z,8.27
2023-01-01T22:36:26.629Z,8.57
2023-01-01T22:38:59.349Z,8.38
2023-01-01T22:41:27.180Z,8.40
2023-01-01T22:44:01.772Z,8.10
2023-01-01T22:46:36.660Z,7.80
2023-01-01T22:49:16.306Z,7.75
2023-01-01T22:51:47.095Z,7.50
2023-01-01T22:54:16.481Z,8.55
2023-01-01T22:56:44.866Z,8.43
2023-01-01T22:59:12.874Z,7.53
